sensor_id;sensor_type;location;lat;lon;timestamp;temperature;humidity
2825;DHT22;1420;51.324;12.344;2024-02-28T00:00:33;4.40;99.90
2825;DHT22;1420;51.324;12.344;2024-02-28T00:03:01;4.50;99.90
2825;DHT22;1420;51.324;12.344;2024-02-28T00:05:29;4.60;99.90
2825;DHT22;1420;51.324;12.344;2024-02-28T00:07:57;4.60;99.90
2825;DHT22;1420;51.324;12.344;2024-02-28T00:10:24;4.60;99.90
2825;DHT22;1420;51.324;12.344;2024-02-28T00:12:51;4.50;99.90
2825;DHT22;1420;51.324;12.344;2024-02-28T00:15:18;4.50;99.90
2825;DHT22;1420;51.324;12.344;2024-02-28T00:17:46;4.50;99.90
2825;DHT22;1420;51.324;12.344;2024-02-28T00:20:13;4.40;99.90
2825;DHT22;1420;51.324;12.344;2024-02-28T00:22:40;4.40;99.90
2825;DHT22;1420;51.324;12.344;2024-02-28T00:25:08;4.40;99.90
2825;DHT22;1420;51.324;12.344;2024-02-28T00:27:35;4.30;99.90
2825;DHT22;1420;51.324;12.344;2024-02-28T00:30:04;4.30;99.90
2825;DHT22;1420;51.324;12.344;2024-02-28T00:32:31;4.30;99.90
2825;DHT22;1420;51.324;12.344;2024-02-28T00:34:58;4.30;99.90
2825;DHT22;1420;51.324;12.344;2024-02-28T00:37:26;4.30;99.90
2825;DHT22;1420;51.324;12.344;2024-02-28T00:39:54;4.30;99.90
2825;DHT22;1420;51.324;12.344;2024-02-28T00:42:22;4.40;99.90
2825;DHT22;1420;51.324;12.344;2024-02-28T00:44:49;4.40;99.90
2825;DHT22;1420;51.324;12.344;2024-02-28T00:47:17;4.40;99.90
2825;DHT22;1420;51.324;12.344;2024-02-28T00:49:44;4.50;99.90
2825;DHT22;1420;51.324;12.344;2024-02-28T00:52:11;4.40;99.90
2825;DHT22;1420;51.324;12.344;2024-02-28T00:54:38;4.40;99.90
2825;DHT22;1420;51.324;12.344;2024-02-28T00:57:05;4.40;99.90
2825;DHT22;1420;51.324;12.344;2024-02-28T00:59:33;4.50;99.90
2825;DHT22;1420;51.324;12.344;2024-02-28T01:02:01;4.50;99.90
2825;DHT22;1420;51.324;12.344;2024-02-28T01:04:29;4.40;99.90
2825;DHT22;1420;51.324;12.344;2024-02-28T01:06:56;4.30;99.90
2825;DHT22;1420;51.324;12.344;2024-02-28T01:09:24;4.30;99.90
2825;DHT22;1420;51.324;12.344;2024-02-28T01:11:51;4.40;99.90
2825;DHT22;1420;51.324;12.344;2024-02-28T01:14:18;4.30;99.90
2825;DHT22;1420;51.324;12.344;2024-02-28T01:16:45;4.40;99.90
2825;DHT22;1420;51.324;12.344;2024-02-28T01:19:12;4.40;99.90
2825;DHT22;1420;51.324;12.344;2024-02-28T01:21:40;4.40;99.90
2825;DHT22;1420;51.324;12.344;2024-02-28T01:24:08;4.40;99.90
2825;DHT22;1420;51.324;12.344;2024-02-28T01:26:36;4.40;99.90
2825;DHT22;1420;51.324;12.344;2024-02-28T01:29:03;4.30;99.90
2825;DHT22;1420;51.324;12.344;2024-02-28T01:31:30;4.40;99.90
2825;DHT22;1420;51.324;12.344;2024-02-28T01:33:57;4.40;99.90
2825;DHT22;1420;51.324;12.344;2024-02-28T01:36:24;4.50;99.90
2825;DHT22;1420;51.324;12.344;2024-02-28T01:38:52;4.50;99.90
2825;DHT22;1420;51.324;12.344;2024-02-28T01:41:19;4.40;99.90
2825;DHT22;1420;51.324;12.344;2024-02-28T01:43:46;4.40;99.90
2825;DHT22;1420;51.324;12.344;2024-02-28T01:46:25;4.40;99.90
2825;DHT22;1420;51.324;12.344;2024-02-28T01:48:51;4.30;99.90
2825;DHT22;1420;51.324;12.344;2024-02-28T01:51:18;4.40;99.90
2825;DHT22;1420;51.324;12.344;2024-02-28T01:53:46;4.40;99.90
2825;DHT22;1420;51.324;12.344;2024-02-28T01:56:14;4.40;99.90
2825;DHT22;1420;51.324;12.344;2024-02-28T01:58:40;4.30;99.90
2825;DHT22;1420;51.324;12.344;2024-02-28T02:01:08;4.30;99.90
2825;DHT22;1420;51.324;12.344;2024-02-28T02:03:36;4.30;99.90
2825;DHT22;1420;51.324;12.344;2024-02-28T02:06:04;4.30;99.90
2825;DHT22;1420;51.324;12.344;2024-02-28T02:08:31;4.20;99.90
2825;DHT22;1420;51.324;12.344;2024-02-28T02:10:58;4.30;99.90
2825;DHT22;1420;51.324;12.344;2024-02-28T02:13:25;4.30;99.90
2825;DHT22;1420;51.324;12.344;2024-02-28T02:15:52;4.40;99.90
2825;DHT22;1420;51.324;12.344;2024-02-28T02:18:20;4.40;99.90
2825;DHT22;1420;51.324;12.344;2024-02-28T02:20:50;4.30;99.90
2825;DHT22;1420;51.324;12.344;2024-02-28T02:23:14;4.30;99.90
2825;DHT22;1420;51.324;12.344;2024-02-28T02:25:44;4.40;99.90
2825;DHT22;1420;51.324;12.344;2024-02-28T02:28:10;4.40;99.90
2825;DHT22;1420;51.324;12.344;2024-02-28T02:30:38;4.40;99.90
2825;DHT22;1420;51.324;12.344;2024-02-28T02:33:05;4.40;99.90
2825;DHT22;1420;51.324;12.344;2024-02-28T02:35:32;4.40;99.90
2825;DHT22;1420;51.324;12.344;2024-02-28T02:37:59;4.40;99.90
2825;DHT22;1420;51.324;12.344;2024-02-28T02:40:26;4.40;99.90
2825;DHT22;1420;51.324;12.344;2024-02-28T02:42:54;4.40;99.90
2825;DHT22;1420;51.324;12.344;2024-02-28T02:45:22;4.40;99.90
2825;DHT22;1420;51.324;12.344;2024-02-28T02:47:50;4.40;99.90
2825;DHT22;1420;51.324;12.344;2024-02-28T02:50:17;4.30;99.90
2825;DHT22;1420;51.324;12.344;2024-02-28T02:52:44;4.40;99.90
2825;DHT22;1420;51.324;12.344;2024-02-28T02:55:12;4.20;99.90
2825;DHT22;1420;51.324;12.344;2024-02-28T02:57:39;4.30;99.90
2825;DHT22;1420;51.324;12.344;2024-02-28T03:00:08;4.30;99.90
2825;DHT22;1420;51.324;12.344;2024-02-28T03:02:35;4.30;99.90
2825;DHT22;1420;51.324;12.344;2024-02-28T03:05:04;4.30;99.90
2825;DHT22;1420;51.324;12.344;2024-02-28T03:07:31;4.30;99.90
2825;DHT22;1420;51.324;12.344;2024-02-28T03:09:59;4.20;99.90
2825;DHT22;1420;51.324;12.344;2024-02-28T03:12:27;4.20;99.90
2825;DHT22;1420;51.324;12.344;2024-02-28T03:14:55;4.20;99.90
2825;DHT22;1420;51.324;12.344;2024-02-28T03:17:22;4.20;99.90
2825;DHT22;1420;51.324;12.344;2024-02-28T03:19:49;4.10;99.90
2825;DHT22;1420;51.324;12.344;2024-02-28T03:22:16;4.10;99.90
2825;DHT22;1420;51.324;12.344;2024-02-28T03:24:43;4.20;99.90
2825;DHT22;1420;51.324;12.344;2024-02-28T03:27:10;4.10;99.90
2825;DHT22;1420;51.324;12.344;2024-02-28T03:29:38;4.10;99.90
2825;DHT22;1420;51.324;12.344;2024-02-28T03:32:06;4.20;99.90
2825;DHT22;1420;51.324;12.344;2024-02-28T03:34:34;4.10;99.90
2825;DHT22;1420;51.324;12.344;2024-02-28T03:37:02;4.20;99.90
2825;DHT22;1420;51.324;12.344;2024-02-28T03:39:30;4.20;99.90
2825;DHT22;1420;51.324;12.344;2024-02-28T03:41:57;4.20;99.90
2825;DHT22;1420;51.324;12.344;2024-02-28T03:44:24;4.10;99.90
2825;DHT22;1420;51.324;12.344;2024-02-28T03:46:51;4.10;99.90
2825;DHT22;1420;51.324;12.344;2024-02-28T03:49:18;4.10;99.90
2825;DHT22;1420;51.324;12.344;2024-02-28T03:51:46;4.00;99.90
2825;DHT22;1420;51.324;12.344;2024-02-28T03:54:13;3.90;99.90
2825;DHT22;1420;51.324;12.344;2024-02-28T03:56:40;3.80;99.90
2825;DHT22;1420;51.324;12.344;2024-02-28T03:59:08;3.70;99.90
2825;DHT22;1420;51.324;12.344;2024-02-28T04:01:36;3.70;99.90
2825;DHT22;1420;51.324;12.344;2024-02-28T04:04:04;3.80;99.90
2825;DHT22;1420;51.324;12.344;2024-02-28T04:06:32;3.80;99.90
2825;DHT22;1420;51.324;12.344;2024-02-28T04:08:59;3.80;99.90
2825;DHT22;1420;51.324;12.344;2024-02-28T04:11:26;3.70;99.90
2825;DHT22;1420;51.324;12.344;2024-02-28T04:13:53;3.80;99.90
2825;DHT22;1420;51.324;12.344;2024-02-28T04:16:21;3.90;99.90
2825;DHT22;1420;51.324;12.344;2024-02-28T04:18:48;3.80;99.90
2825;DHT22;1420;51.324;12.344;2024-02-28T04:21:15;3.70;99.90
2825;DHT22;1420;51.324;12.344;2024-02-28T04:23:42;3.70;99.90
2825;DHT22;1420;51.324;12.344;2024-02-28T04:26:10;3.60;99.90
2825;DHT22;1420;51.324;12.344;2024-02-28T04:28:38;3.60;99.90
2825;DHT22;1420;51.324;12.344;2024-02-28T04:31:06;3.70;99.90
2825;DHT22;1420;51.324;12.344;2024-02-28T04:33:33;3.60;99.90
2825;DHT22;1420;51.324;12.344;2024-02-28T04:36:01;3.70;99.90
2825;DHT22;1420;51.324;12.344;2024-02-28T04:38:28;3.70;99.90
2825;DHT22;1420;51.324;12.344;2024-02-28T04:40:55;3.60;99.90
2825;DHT22;1420;51.324;12.344;2024-02-28T04:43:22;3.60;99.90
2825;DHT22;1420;51.324;12.344;2024-02-28T04:45:49;3.70;99.90
2825;DHT22;1420;51.324;12.344;2024-02-28T04:48:17;3.60;99.90
2825;DHT22;1420;51.324;12.344;2024-02-28T04:50:45;3.70;99.90
2825;DHT22;1420;51.324;12.344;2024-02-28T04:53:12;3.70;99.90
2825;DHT22;1420;51.324;12.344;2024-02-28T04:55:40;3.70;99.90
2825;DHT22;1420;51.324;12.344;2024-02-28T04:58:08;3.70;99.90
2825;DHT22;1420;51.324;12.344;2024-02-28T05:00:35;3.70;99.90
2825;DHT22;1420;51.324;12.344;2024-02-28T05:03:02;3.70;99.90
2825;DHT22;1420;51.324;12.344;2024-02-28T05:05:29;3.70;99.90
2825;DHT22;1420;51.324;12.344;2024-02-28T05:07:57;3.80;99.90
2825;DHT22;1420;51.324;12.344;2024-02-28T05:10:24;3.60;99.90
2825;DHT22;1420;51.324;12.344;2024-02-28T05:12:51;3.70;99.90
2825;DHT22;1420;51.324;12.344;2024-02-28T05:15:18;3.60;99.90
2825;DHT22;1420;51.324;12.344;2024-02-28T05:17:45;3.70;99.90
2825;DHT22;1420;51.324;12.344;2024-02-28T05:20:13;3.60;99.90
2825;DHT22;1420;51.324;12.344;2024-02-28T05:22:40;3.50;99.90
2825;DHT22;1420;51.324;12.344;2024-02-28T05:25:08;3.60;99.90
2825;DHT22;1420;51.324;12.344;2024-02-28T05:27:36;3.60;99.90
2825;DHT22;1420;51.324;12.344;2024-02-28T05:30:03;3.60;99.90
2825;DHT22;1420;51.324;12.344;2024-02-28T05:32:31;3.70;99.90
2825;DHT22;1420;51.324;12.344;2024-02-28T05:34:58;3.80;99.90
2825;DHT22;1420;51.324;12.344;2024-02-28T05:37:26;3.70;99.90
2825;DHT22;1420;51.324;12.344;2024-02-28T05:39:53;3.80;99.90
2825;DHT22;1420;51.324;12.344;2024-02-28T05:42:20;3.60;99.90
2825;DHT22;1420;51.324;12.344;2024-02-28T05:44:49;3.60;99.90
2825;DHT22;1420;51.324;12.344;2024-02-28T05:47:17;3.50;99.90
2825;DHT22;1420;51.324;12.344;2024-02-28T05:49:45;3.60;99.90
2825;DHT22;1420;51.324;12.344;2024-02-28T05:52:13;3.60;99.90
2825;DHT22;1420;51.324;12.344;2024-02-28T05:54:40;4.10;99.90
2825;DHT22;1420;51.324;12.344;2024-02-28T05:57:08;4.50;99.90
2825;DHT22;1420;51.324;12.344;2024-02-28T05:59:35;4.50;99.90
2825;DHT22;1420;51.324;12.344;2024-02-28T06:02:02;5.10;99.90
2825;DHT22;1420;51.324;12.344;2024-02-28T06:04:29;4.60;99.90
2825;DHT22;1420;51.324;12.344;2024-02-28T06:06:56;4.60;99.90
2825;DHT22;1420;51.324;12.344;2024-02-28T06:09:24;5.00;99.90
2825;DHT22;1420;51.324;12.344;2024-02-28T06:11:51;5.10;99.90
2825;DHT22;1420;51.324;12.344;2024-02-28T06:14:18;4.40;99.90
2825;DHT22;1420;51.324;12.344;2024-02-28T06:16:46;4.20;99.90
2825;DHT22;1420;51.324;12.344;2024-02-28T06:19:13;3.90;99.90
2825;DHT22;1420;51.324;12.344;2024-02-28T06:21:41;3.90;99.90
2825;DHT22;1420;51.324;12.344;2024-02-28T06:24:08;3.80;99.90
2825;DHT22;1420;51.324;12.344;2024-02-28T06:26:35;3.80;99.90
2825;DHT22;1420;51.324;12.344;2024-02-28T06:29:02;3.70;99.90
2825;DHT22;1420;51.324;12.344;2024-02-28T06:31:29;3.70;99.90
2825;DHT22;1420;51.324;12.344;2024-02-28T06:33:57;3.60;99.90
2825;DHT22;1420;51.324;12.344;2024-02-28T06:36:24;3.60;99.90
2825;DHT22;1420;51.324;12.344;2024-02-28T06:38:52;3.60;99.90
2825;DHT22;1420;51.324;12.344;2024-02-28T06:41:19;3.50;99.90
2825;DHT22;1420;51.324;12.344;2024-02-28T06:43:46;3.50;99.90
2825;DHT22;1420;51.324;12.344;2024-02-28T06:46:13;3.40;99.90
2825;DHT22;1420;51.324;12.344;2024-02-28T06:48:41;3.50;99.90
2825;DHT22;1420;51.324;12.344;2024-02-28T06:51:08;3.50;99.90
2825;DHT22;1420;51.324;12.344;2024-02-28T06:53:35;3.50;99.90
2825;DHT22;1420;51.324;12.344;2024-02-28T06:56:02;3.50;99.90
2825;DHT22;1420;51.324;12.344;2024-02-28T06:58:29;3.50;99.90
2825;DHT22;1420;51.324;12.344;2024-02-28T07:00:57;3.50;99.90
2825;DHT22;1420;51.324;12.344;2024-02-28T07:03:24;3.60;99.90
2825;DHT22;1420;51.324;12.344;2024-02-28T07:05:51;3.60;99.90
2825;DHT22;1420;51.324;12.344;2024-02-28T07:08:18;3.70;99.90
2825;DHT22;1420;51.324;12.344;2024-02-28T07:10:45;3.60;99.90
2825;DHT22;1420;51.324;12.344;2024-02-28T07:13:13;3.70;99.90
2825;DHT22;1420;51.324;12.344;2024-02-28T07:15:40;3.90;99.90
2825;DHT22;1420;51.324;12.344;2024-02-28T07:18:07;3.80;99.90
2825;DHT22;1420;51.324;12.344;2024-02-28T07:20:34;3.70;99.90
2825;DHT22;1420;51.324;12.344;2024-02-28T07:23:02;3.60;99.90
2825;DHT22;1420;51.324;12.344;2024-02-28T07:25:30;3.50;99.90
2825;DHT22;1420;51.324;12.344;2024-02-28T07:27:57;3.70;99.90
2825;DHT22;1420;51.324;12.344;2024-02-28T07:30:24;3.70;99.90
2825;DHT22;1420;51.324;12.344;2024-02-28T07:32:51;3.70;99.90
2825;DHT22;1420;51.324;12.344;2024-02-28T07:35:18;3.70;99.90
2825;DHT22;1420;51.324;12.344;2024-02-28T07:37:48;3.70;99.90
2825;DHT22;1420;51.324;12.344;2024-02-28T07:40:15;3.90;99.90
2825;DHT22;1420;51.324;12.344;2024-02-28T07:42:42;3.80;99.90
2825;DHT22;1420;51.324;12.344;2024-02-28T07:45:09;3.80;99.90
2825;DHT22;1420;51.324;12.344;2024-02-28T07:47:37;3.80;99.90
2825;DHT22;1420;51.324;12.344;2024-02-28T07:50:05;3.90;99.90
2825;DHT22;1420;51.324;12.344;2024-02-28T07:52:32;3.90;99.90
2825;DHT22;1420;51.324;12.344;2024-02-28T07:55:00;4.00;99.90
2825;DHT22;1420;51.324;12.344;2024-02-28T07:57:27;3.90;99.90
2825;DHT22;1420;51.324;12.344;2024-02-28T07:59:54;4.00;99.90
2825;DHT22;1420;51.324;12.344;2024-02-28T08:02:22;4.00;99.90
2825;DHT22;1420;51.324;12.344;2024-02-28T08:04:49;4.20;99.90
2825;DHT22;1420;51.324;12.344;2024-02-28T08:07:16;4.20;99.90
2825;DHT22;1420;51.324;12.344;2024-02-28T08:09:44;4.50;99.90
2825;DHT22;1420;51.324;12.344;2024-02-28T08:12:11;4.60;99.90
2825;DHT22;1420;51.324;12.344;2024-02-28T08:14:39;5.30;99.90
2825;DHT22;1420;51.324;12.344;2024-02-28T08:17:06;5.30;99.90
2825;DHT22;1420;51.324;12.344;2024-02-28T08:19:35;5.20;99.90
2825;DHT22;1420;51.324;12.344;2024-02-28T08:22:03;5.10;99.90
2825;DHT22;1420;51.324;12.344;2024-02-28T08:24:31;5.60;99.90
2825;DHT22;1420;51.324;12.344;2024-02-28T08:26:59;5.60;99.90
2825;DHT22;1420;51.324;12.344;2024-02-28T08:29:26;5.60;99.90
2825;DHT22;1420;51.324;12.344;2024-02-28T08:31:54;6.10;99.90
2825;DHT22;1420;51.324;12.344;2024-02-28T08:34:27;6.40;99.90
2825;DHT22;1420;51.324;12.344;2024-02-28T08:36:55;6.30;99.90
2825;DHT22;1420;51.324;12.344;2024-02-28T08:39:27;6.50;99.90
2825;DHT22;1420;51.324;12.344;2024-02-28T08:42:00;6.40;99.90
2825;DHT22;1420;51.324;12.344;2024-02-28T08:44:28;6.30;99.90
2825;DHT22;1420;51.324;12.344;2024-02-28T08:46:55;6.30;99.90
2825;DHT22;1420;51.324;12.344;2024-02-28T08:49:22;6.10;99.90
2825;DHT22;1420;51.324;12.344;2024-02-28T08:51:49;5.90;99.90
2825;DHT22;1420;51.324;12.344;2024-02-28T08:54:16;5.70;99.90
2825;DHT22;1420;51.324;12.344;2024-02-28T08:56:44;5.80;99.90
2825;DHT22;1420;51.324;12.344;2024-02-28T08:59:11;5.40;99.90
2825;DHT22;1420;51.324;12.344;2024-02-28T09:01:38;5.50;99.90
2825;DHT22;1420;51.324;12.344;2024-02-28T09:04:06;5.50;99.90
2825;DHT22;1420;51.324;12.344;2024-02-28T09:06:34;5.70;99.90
2825;DHT22;1420;51.324;12.344;2024-02-28T09:09:01;5.70;99.90
2825;DHT22;1420;51.324;12.344;2024-02-28T09:11:28;5.50;99.90
2825;DHT22;1420;51.324;12.344;2024-02-28T09:13:55;5.40;99.90
2825;DHT22;1420;51.324;12.344;2024-02-28T09:16:22;5.30;99.90
2825;DHT22;1420;51.324;12.344;2024-02-28T09:18:50;5.30;99.90
2825;DHT22;1420;51.324;12.344;2024-02-28T09:21:17;5.20;99.90
2825;DHT22;1420;51.324;12.344;2024-02-28T09:23:44;5.00;99.90
2825;DHT22;1420;51.324;12.344;2024-02-28T09:26:12;5.00;99.90
2825;DHT22;1420;51.324;12.344;2024-02-28T09:28:40;4.90;99.90
2825;DHT22;1420;51.324;12.344;2024-02-28T09:31:08;5.20;99.90
2825;DHT22;1420;51.324;12.344;2024-02-28T09:33:35;5.20;99.90
2825;DHT22;1420;51.324;12.344;2024-02-28T09:36:02;5.50;99.90
2825;DHT22;1420;51.324;12.344;2024-02-28T09:38:30;5.50;99.90
2825;DHT22;1420;51.324;12.344;2024-02-28T09:40:58;5.80;99.90
2825;DHT22;1420;51.324;12.344;2024-02-28T09:43:28;6.10;99.90
2825;DHT22;1420;51.324;12.344;2024-02-28T09:45:57;6.10;99.90
2825;DHT22;1420;51.324;12.344;2024-02-28T09:48:23;6.70;99.90
2825;DHT22;1420;51.324;12.344;2024-02-28T09:50:51;6.60;99.90
2825;DHT22;1420;51.324;12.344;2024-02-28T09:53:19;6.60;99.90
2825;DHT22;1420;51.324;12.344;2024-02-28T09:55:47;7.10;99.90
2825;DHT22;1420;51.324;12.344;2024-02-28T09:58:14;7.30;99.90
2825;DHT22;1420;51.324;12.344;2024-02-28T10:00:41;7.70;99.90
2825;DHT22;1420;51.324;12.344;2024-02-28T10:03:08;7.40;99.90
2825;DHT22;1420;51.324;12.344;2024-02-28T10:05:35;7.70;99.90
2825;DHT22;1420;51.324;12.344;2024-02-28T10:08:04;7.70;99.90
2825;DHT22;1420;51.324;12.344;2024-02-28T10:10:31;7.70;99.90
2825;DHT22;1420;51.324;12.344;2024-02-28T10:12:59;7.50;99.90
2825;DHT22;1420;51.324;12.344;2024-02-28T10:15:27;7.20;99.90
2825;DHT22;1420;51.324;12.344;2024-02-28T10:17:54;7.20;99.90
2825;DHT22;1420;51.324;12.344;2024-02-28T10:20:21;7.50;99.90
2825;DHT22;1420;51.324;12.344;2024-02-28T10:22:48;7.70;99.90
2825;DHT22;1420;51.324;12.344;2024-02-28T10:25:19;8.10;99.90
2825;DHT22;1420;51.324;12.344;2024-02-28T10:27:59;8.10;99.90
2825;DHT22;1420;51.324;12.344;2024-02-28T10:30:31;7.70;99.90
2825;DHT22;1420;51.324;12.344;2024-02-28T10:32:59;7.70;99.90
2825;DHT22;1420;51.324;12.344;2024-02-28T10:35:26;8.10;99.90
2825;DHT22;1420;51.324;12.344;2024-02-28T10:37:54;7.90;99.90
2825;DHT22;1420;51.324;12.344;2024-02-28T10:40:22;7.50;99.90
2825;DHT22;1420;51.324;12.344;2024-02-28T10:42:50;7.60;99.90
2825;DHT22;1420;51.324;12.344;2024-02-28T10:45:18;7.90;99.90
2825;DHT22;1420;51.324;12.344;2024-02-28T10:47:46;7.80;99.90
2825;DHT22;1420;51.324;12.344;2024-02-28T10:50:13;8.00;99.90
2825;DHT22;1420;51.324;12.344;2024-02-28T10:52:43;8.10;99.90
2825;DHT22;1420;51.324;12.344;2024-02-28T10:55:08;8.20;99.90
2825;DHT22;1420;51.324;12.344;2024-02-28T10:57:36;8.40;99.90
2825;DHT22;1420;51.324;12.344;2024-02-28T11:00:04;8.40;99.90
2825;DHT22;1420;51.324;12.344;2024-02-28T11:02:32;8.30;99.90
2825;DHT22;1420;51.324;12.344;2024-02-28T11:04:59;8.20;99.90
2825;DHT22;1420;51.324;12.344;2024-02-28T11:07:26;8.20;99.90
2825;DHT22;1420;51.324;12.344;2024-02-28T11:09:54;8.40;99.90
2825;DHT22;1420;51.324;12.344;2024-02-28T11:12:26;8.70;99.90
2825;DHT22;1420;51.324;12.344;2024-02-28T11:14:59;8.60;99.90
2825;DHT22;1420;51.324;12.344;2024-02-28T11:17:27;8.10;99.90
2825;DHT22;1420;51.324;12.344;2024-02-28T11:19:55;8.10;99.90
2825;DHT22;1420;51.324;12.344;2024-02-28T11:22:22;7.90;99.90
2825;DHT22;1420;51.324;12.344;2024-02-28T11:24:49;8.10;99.90
2825;DHT22;1420;51.324;12.344;2024-02-28T11:27:17;8.20;99.90
2825;DHT22;1420;51.324;12.344;2024-02-28T11:29:45;8.30;99.90
2825;DHT22;1420;51.324;12.344;2024-02-28T11:32:13;8.20;99.90
2825;DHT22;1420;51.324;12.344;2024-02-28T11:34:40;8.00;99.90
2825;DHT22;1420;51.324;12.344;2024-02-28T11:37:08;8.40;99.90
2825;DHT22;1420;51.324;12.344;2024-02-28T11:39:36;8.10;99.90
2825;DHT22;1420;51.324;12.344;2024-02-28T11:42:10;8.10;99.90
2825;DHT22;1420;51.324;12.344;2024-02-28T11:44:37;8.10;99.90
2825;DHT22;1420;51.324;12.344;2024-02-28T11:47:04;8.00;99.90
2825;DHT22;1420;51.324;12.344;2024-02-28T11:49:32;7.90;99.90
2825;DHT22;1420;51.324;12.344;2024-02-28T11:52:00;8.20;99.90
2825;DHT22;1420;51.324;12.344;2024-02-28T11:54:28;8.20;99.90
2825;DHT22;1420;51.324;12.344;2024-02-28T11:56:56;8.30;99.90
2825;DHT22;1420;51.324;12.344;2024-02-28T11:59:24;8.40;99.90
2825;DHT22;1420;51.324;12.344;2024-02-28T12:01:52;8.30;99.90
2825;DHT22;1420;51.324;12.344;2024-02-28T12:04:20;8.10;99.90
2825;DHT22;1420;51.324;12.344;2024-02-28T12:06:48;7.90;99.90
2825;DHT22;1420;51.324;12.344;2024-02-28T12:09:15;7.90;99.90
2825;DHT22;1420;51.324;12.344;2024-02-28T12:11:42;7.90;99.90
2825;DHT22;1420;51.324;12.344;2024-02-28T12:14:09;8.10;99.90
2825;DHT22;1420;51.324;12.344;2024-02-28T12:16:37;7.90;99.90
2825;DHT22;1420;51.324;12.344;2024-02-28T12:19:07;7.90;99.90
2825;DHT22;1420;51.324;12.344;2024-02-28T12:21:33;7.90;99.90
2825;DHT22;1420;51.324;12.344;2024-02-28T12:24:01;8.00;99.90
2825;DHT22;1420;51.324;12.344;2024-02-28T12:26:28;8.20;99.50
2825;DHT22;1420;51.324;12.344;2024-02-28T12:28:55;8.10;99.30
2825;DHT22;1420;51.324;12.344;2024-02-28T12:31:22;7.90;99.90
2825;DHT22;1420;51.324;12.344;2024-02-28T12:33:49;7.70;99.90
2825;DHT22;1420;51.324;12.344;2024-02-28T12:36:17;7.70;99.90
2825;DHT22;1420;51.324;12.344;2024-02-28T12:38:44;7.60;99.90
2825;DHT22;1420;51.324;12.344;2024-02-28T12:41:11;7.70;99.90
2825;DHT22;1420;51.324;12.344;2024-02-28T12:43:38;7.80;99.90
2825;DHT22;1420;51.324;12.344;2024-02-28T12:46:06;7.60;99.90
2825;DHT22;1420;51.324;12.344;2024-02-28T12:48:37;7.50;99.90
2825;DHT22;1420;51.324;12.344;2024-02-28T12:51:04;7.60;99.90
2825;DHT22;1420;51.324;12.344;2024-02-28T12:53:31;7.50;99.90
2825;DHT22;1420;51.324;12.344;2024-02-28T12:55:58;7.50;99.90
2825;DHT22;1420;51.324;12.344;2024-02-28T12:58:26;7.50;99.90
2825;DHT22;1420;51.324;12.344;2024-02-28T13:00:53;7.50;99.90
2825;DHT22;1420;51.324;12.344;2024-02-28T13:03:20;7.60;99.90
2825;DHT22;1420;51.324;12.344;2024-02-28T13:05:47;7.80;99.90
2825;DHT22;1420;51.324;12.344;2024-02-28T13:08:14;7.80;99.80
2825;DHT22;1420;51.324;12.344;2024-02-28T13:10:41;7.90;98.90
2825;DHT22;1420;51.324;12.344;2024-02-28T13:13:09;7.90;97.60
2825;DHT22;1420;51.324;12.344;2024-02-28T13:15:37;7.60;99.00
2825;DHT22;1420;51.324;12.344;2024-02-28T13:18:05;7.70;98.50
2825;DHT22;1420;51.324;12.344;2024-02-28T13:20:32;7.60;98.50
2825;DHT22;1420;51.324;12.344;2024-02-28T13:22:59;7.70;97.80
2825;DHT22;1420;51.324;12.344;2024-02-28T13:25:26;7.60;96.50
2825;DHT22;1420;51.324;12.344;2024-02-28T13:27:54;7.70;95.70
2825;DHT22;1420;51.324;12.344;2024-02-28T13:30:21;7.70;96.50
2825;DHT22;1420;51.324;12.344;2024-02-28T13:32:48;7.70;96.50
2825;DHT22;1420;51.324;12.344;2024-02-28T13:35:15;7.70;95.50
2825;DHT22;1420;51.324;12.344;2024-02-28T13:37:42;7.70;94.60
2825;DHT22;1420;51.324;12.344;2024-02-28T13:40:10;7.60;94.90
2825;DHT22;1420;51.324;12.344;2024-02-28T13:42:38;7.50;95.00
2825;DHT22;1420;51.324;12.344;2024-02-28T13:45:05;7.60;95.00
2825;DHT22;1420;51.324;12.344;2024-02-28T13:47:33;7.60;95.30
2825;DHT22;1420;51.324;12.344;2024-02-28T13:50:01;7.50;95.10
2825;DHT22;1420;51.324;12.344;2024-02-28T13:52:28;7.70;96.00
2825;DHT22;1420;51.324;12.344;2024-02-28T13:54:56;7.70;97.40
2825;DHT22;1420;51.324;12.344;2024-02-28T13:57:24;7.80;97.30
2825;DHT22;1420;51.324;12.344;2024-02-28T13:59:56;7.70;97.00
2825;DHT22;1420;51.324;12.344;2024-02-28T14:02:28;7.70;96.90
2825;DHT22;1420;51.324;12.344;2024-02-28T14:04:55;7.70;97.40
2825;DHT22;1420;51.324;12.344;2024-02-28T14:07:22;7.70;98.10
2825;DHT22;1420;51.324;12.344;2024-02-28T14:09:50;7.50;98.10
2825;DHT22;1420;51.324;12.344;2024-02-28T14:12:17;7.60;98.20
2825;DHT22;1420;51.324;12.344;2024-02-28T14:14:45;7.70;99.20
2825;DHT22;1420;51.324;12.344;2024-02-28T14:17:12;7.70;98.80
2825;DHT22;1420;51.324;12.344;2024-02-28T14:19:40;7.70;99.40
2825;DHT22;1420;51.324;12.344;2024-02-28T14:22:07;7.70;99.80
2825;DHT22;1420;51.324;12.344;2024-02-28T14:24:34;7.60;99.90
2825;DHT22;1420;51.324;12.344;2024-02-28T14:27:01;7.70;99.90
2825;DHT22;1420;51.324;12.344;2024-02-28T14:29:28;7.70;99.90
2825;DHT22;1420;51.324;12.344;2024-02-28T14:31:56;7.80;99.90
2825;DHT22;1420;51.324;12.344;2024-02-28T14:34:23;7.70;99.90
2825;DHT22;1420;51.324;12.344;2024-02-28T14:36:50;7.70;99.90
2825;DHT22;1420;51.324;12.344;2024-02-28T14:39:17;7.80;99.90
2825;DHT22;1420;51.324;12.344;2024-02-28T14:41:44;7.70;99.90
2825;DHT22;1420;51.324;12.344;2024-02-28T14:44:12;7.70;99.90
2825;DHT22;1420;51.324;12.344;2024-02-28T14:46:39;7.60;99.90
2825;DHT22;1420;51.324;12.344;2024-02-28T14:49:06;7.60;99.90
2825;DHT22;1420;51.324;12.344;2024-02-28T14:51:33;7.60;99.90
2825;DHT22;1420;51.324;12.344;2024-02-28T14:54:00;7.60;99.90
2825;DHT22;1420;51.324;12.344;2024-02-28T14:56:28;7.60;99.90
2825;DHT22;1420;51.324;12.344;2024-02-28T14:58:55;7.60;99.90
2825;DHT22;1420;51.324;12.344;2024-02-28T15:01:22;7.70;99.90
2825;DHT22;1420;51.324;12.344;2024-02-28T15:03:50;7.60;99.90
2825;DHT22;1420;51.324;12.344;2024-02-28T15:06:17;7.50;99.90
2825;DHT22;1420;51.324;12.344;2024-02-28T15:08:45;7.70;99.90
2825;DHT22;1420;51.324;12.344;2024-02-28T15:11:12;7.60;99.90
2825;DHT22;1420;51.324;12.344;2024-02-28T15:13:40;7.40;99.90
2825;DHT22;1420;51.324;12.344;2024-02-28T15:16:07;7.40;99.90
2825;DHT22;1420;51.324;12.344;2024-02-28T15:18:34;7.40;99.90
2825;DHT22;1420;51.324;12.344;2024-02-28T15:21:02;7.40;99.90
2825;DHT22;1420;51.324;12.344;2024-02-28T15:23:29;7.30;99.90
2825;DHT22;1420;51.324;12.344;2024-02-28T15:25:56;7.30;99.90
2825;DHT22;1420;51.324;12.344;2024-02-28T15:28:24;7.30;99.90
2825;DHT22;1420;51.324;12.344;2024-02-28T15:30:51;7.30;99.90
2825;DHT22;1420;51.324;12.344;2024-02-28T15:33:19;7.40;99.90
2825;DHT22;1420;51.324;12.344;2024-02-28T15:35:46;7.30;99.90
2825;DHT22;1420;51.324;12.344;2024-02-28T15:38:13;7.30;99.90
2825;DHT22;1420;51.324;12.344;2024-02-28T15:40:40;7.30;99.90
2825;DHT22;1420;51.324;12.344;2024-02-28T15:43:07;7.20;99.90
2825;DHT22;1420;51.324;12.344;2024-02-28T15:45:35;7.30;99.90
2825;DHT22;1420;51.324;12.344;2024-02-28T15:48:02;7.20;99.90
2825;DHT22;1420;51.324;12.344;2024-02-28T15:50:29;7.20;99.90
2825;DHT22;1420;51.324;12.344;2024-02-28T15:52:56;7.10;99.90
2825;DHT22;1420;51.324;12.344;2024-02-28T15:55:24;7.10;99.90
2825;DHT22;1420;51.324;12.344;2024-02-28T15:57:51;7.00;99.90
2825;DHT22;1420;51.324;12.344;2024-02-28T16:00:18;7.00;99.90
2825;DHT22;1420;51.324;12.344;2024-02-28T16:02:46;7.00;99.90